sensor_id;sensor_type;location;lat;lon;timestamp;temperature;humidity
64549;DHT22;49838;51.798;10.954;2022-12-10T00:02:00;6.60;52.10
64549;DHT22;49838;51.798;10.954;2022-12-10T00:04:27;6.60;52.10
64549;DHT22;49838;51.798;10.954;2022-12-10T00:06:55;6.60;52.10
64549;DHT22;49838;51.798;10.954;2022-12-10T00:09:22;6.60;52.10
64549;DHT22;49838;51.798;10.954;2022-12-10T00:11:49;6.60;52.10
64549;DHT22;49838;51.798;10.954;2022-12-10T00:14:17;6.60;52.00
64549;DHT22;49838;51.798;10.954;2022-12-10T00:16:46;6.50;52.00
64549;DHT22;49838;51.798;10.954;2022-12-10T00:19:13;6.50;52.10
64549;DHT22;49838;51.798;10.954;2022-12-10T00:21:41;6.40;52.00
64549;DHT22;49838;51.798;10.954;2022-12-10T00:24:10;6.50;52.20
64549;DHT22;49838;51.798;10.954;2022-12-10T00:26:38;6.50;52.10
64549;DHT22;49838;51.798;10.954;2022-12-10T00:29:06;6.50;52.10
64549;DHT22;49838;51.798;10.954;2022-12-10T00:31:37;6.50;52.00
64549;DHT22;49838;51.798;10.954;2022-12-10T00:34:08;6.50;52.10
64549;DHT22;49838;51.798;10.954;2022-12-10T00:36:37;6.40;52.00
64549;DHT22;49838;51.798;10.954;2022-12-10T00:39:08;6.40;52.00
64549;DHT22;49838;51.798;10.954;2022-12-10T00:41:36;6.40;52.10
64549;DHT22;49838;51.798;10.954;2022-12-10T00:44:03;6.50;52.20
64549;DHT22;49838;51.798;10.954;2022-12-10T00:46:31;6.40;52.00
64549;DHT22;49838;51.798;10.954;2022-12-10T00:48:58;6.40;51.90
64549;DHT22;49838;51.798;10.954;2022-12-10T00:51:28;6.40;52.00
64549;DHT22;49838;51.798;10.954;2022-12-10T00:53:56;6.40;52.00
64549;DHT22;49838;51.798;10.954;2022-12-10T00:56:25;6.50;52.10
64549;DHT22;49838;51.798;10.954;2022-12-10T00:58:54;6.50;52.10
64549;DHT22;49838;51.798;10.954;2022-12-10T01:01:23;6.50;52.00
64549;DHT22;49838;51.798;10.954;2022-12-10T01:03:54;6.50;52.00
64549;DHT22;49838;51.798;10.954;2022-12-10T01:06:24;6.50;52.00
64549;DHT22;49838;51.798;10.954;2022-12-10T01:08:56;6.50;51.90
64549;DHT22;49838;51.798;10.954;2022-12-10T01:11:26;6.50;51.90
64549;DHT22;49838;51.798;10.954;2022-12-10T01:13:56;6.50;51.90
64549;DHT22;49838;51.798;10.954;2022-12-10T01:16:24;6.50;51.90
64549;DHT22;49838;51.798;10.954;2022-12-10T01:18:52;6.50;52.00
64549;DHT22;49838;51.798;10.954;2022-12-10T01:21:21;6.50;52.00
64549;DHT22;49838;51.798;10.954;2022-12-10T01:23:49;6.60;52.10
64549;DHT22;49838;51.798;10.954;2022-12-10T01:26:19;6.60;52.00
64549;DHT22;49838;51.798;10.954;2022-12-10T01:28:48;6.60;52.00
64549;DHT22;49838;51.798;10.954;2022-12-10T01:31:17;6.60;51.90
64549;DHT22;49838;51.798;10.954;2022-12-10T01:33:46;6.60;51.90
64549;DHT22;49838;51.798;10.954;2022-12-10T01:36:15;6.60;51.90
64549;DHT22;49838;51.798;10.954;2022-12-10T01:38:44;6.70;52.00
64549;DHT22;49838;51.798;10.954;2022-12-10T01:41:13;6.70;51.90
64549;DHT22;49838;51.798;10.954;2022-12-10T01:43:51;6.70;52.00
64549;DHT22;49838;51.798;10.954;2022-12-10T01:46:21;6.70;52.00
64549;DHT22;49838;51.798;10.954;2022-12-10T01:48:50;6.70;51.90
64549;DHT22;49838;51.798;10.954;2022-12-10T01:51:18;6.70;51.90
64549;DHT22;49838;51.798;10.954;2022-12-10T01:53:46;6.80;52.00
64549;DHT22;49838;51.798;10.954;2022-12-10T01:56:15;6.80;51.90
64549;DHT22;49838;51.798;10.954;2022-12-10T01:58:43;6.80;51.90
64549;DHT22;49838;51.798;10.954;2022-12-10T02:01:16;6.80;51.90
64549;DHT22;49838;51.798;10.954;2022-12-10T02:03:52;6.80;51.90
64549;DHT22;49838;51.798;10.954;2022-12-10T02:06:34;6.80;51.80
64549;DHT22;49838;51.798;10.954;2022-12-10T02:09:12;6.80;51.90
64549;DHT22;49838;51.798;10.954;2022-12-10T02:11:49;6.90;51.80
64549;DHT22;49838;51.798;10.954;2022-12-10T02:14:28;6.90;51.80
64549;DHT22;49838;51.798;10.954;2022-12-10T02:17:01;6.90;51.80
64549;DHT22;49838;51.798;10.954;2022-12-10T02:19:48;6.90;52.30
64549;DHT22;49838;51.798;10.954;2022-12-10T02:22:21;7.00;51.80
64549;DHT22;49838;51.798;10.954;2022-12-10T02:24:52;6.90;51.70
64549;DHT22;49838;51.798;10.954;2022-12-10T02:27:24;6.90;51.70
64549;DHT22;49838;51.798;10.954;2022-12-10T02:29:59;6.80;51.70
64549;DHT22;49838;51.798;10.954;2022-12-10T02:32:30;6.80;51.70
64549;DHT22;49838;51.798;10.954;2022-12-10T02:35:01;6.80;51.80
64549;DHT22;49838;51.798;10.954;2022-12-10T02:37:34;6.80;51.70
64549;DHT22;49838;51.798;10.954;2022-12-10T02:40:06;6.80;51.70
64549;DHT22;49838;51.798;10.954;2022-12-10T02:42:37;6.80;51.70
64549;DHT22;49838;51.798;10.954;2022-12-10T02:45:09;6.80;51.60
64549;DHT22;49838;51.798;10.954;2022-12-10T02:47:37;6.80;51.70
64549;DHT22;49838;51.798;10.954;2022-12-10T02:50:07;6.80;51.70
64549;DHT22;49838;51.798;10.954;2022-12-10T02:52:36;6.80;51.80
64549;DHT22;49838;51.798;10.954;2022-12-10T02:55:04;6.70;51.70
64549;DHT22;49838;51.798;10.954;2022-12-10T02:57:33;6.70;51.70
64549;DHT22;49838;51.798;10.954;2022-12-10T03:00:10;6.70;51.70
64549;DHT22;49838;51.798;10.954;2022-12-10T03:02:44;6.60;51.70
64549;DHT22;49838;51.798;10.954;2022-12-10T03:05:32;6.60;51.70
64549;DHT22;49838;51.798;10.954;2022-12-10T03:08:10;6.60;51.70
64549;DHT22;49838;51.798;10.954;2022-12-10T03:10:43;6.60;51.70
64549;DHT22;49838;51.798;10.954;2022-12-10T03:13:17;6.60;51.70
64549;DHT22;49838;51.798;10.954;2022-12-10T03:15:50;6.60;52.30
64549;DHT22;49838;51.798;10.954;2022-12-10T03:18:21;6.60;51.70
64549;DHT22;49838;51.798;10.954;2022-12-10T03:20:52;6.60;51.70
64549;DHT22;49838;51.798;10.954;2022-12-10T03:23:23;6.60;51.70
64549;DHT22;49838;51.798;10.954;2022-12-10T03:25:53;6.60;51.70
64549;DHT22;49838;51.798;10.954;2022-12-10T03:28:21;6.60;51.70
64549;DHT22;49838;51.798;10.954;2022-12-10T03:30:51;6.60;51.70
64549;DHT22;49838;51.798;10.954;2022-12-10T03:33:22;6.60;51.70
64549;DHT22;49838;51.798;10.954;2022-12-10T03:35:49;6.70;51.70
64549;DHT22;49838;51.798;10.954;2022-12-10T03:38:17;6.60;51.60
64549;DHT22;49838;51.798;10.954;2022-12-10T03:40:45;6.60;51.50
64549;DHT22;49838;51.798;10.954;2022-12-10T03:43:13;6.40;51.40
64549;DHT22;49838;51.798;10.954;2022-12-10T03:45:40;6.50;51.50
64549;DHT22;49838;51.798;10.954;2022-12-10T03:48:09;6.50;51.50
64549;DHT22;49838;51.798;10.954;2022-12-10T03:50:37;6.50;51.50
64549;DHT22;49838;51.798;10.954;2022-12-10T03:53:04;6.50;51.60
64549;DHT22;49838;51.798;10.954;2022-12-10T03:55:31;6.50;51.60
64549;DHT22;49838;51.798;10.954;2022-12-10T03:57:59;6.50;51.60
64549;DHT22;49838;51.798;10.954;2022-12-10T04:00:27;6.50;51.60
64549;DHT22;49838;51.798;10.954;2022-12-10T04:02:57;6.50;51.60
64549;DHT22;49838;51.798;10.954;2022-12-10T04:05:26;6.50;51.60
64549;DHT22;49838;51.798;10.954;2022-12-10T04:07:53;6.50;51.60
64549;DHT22;49838;51.798;10.954;2022-12-10T04:10:20;6.50;51.50
64549;DHT22;49838;51.798;10.954;2022-12-10T04:12:48;6.50;51.50
64549;DHT22;49838;51.798;10.954;2022-12-10T04:15:37;6.50;51.50
64549;DHT22;49838;51.798;10.954;2022-12-10T04:18:23;6.40;51.40
64549;DHT22;49838;51.798;10.954;2022-12-10T04:20:52;6.40;51.40
64549;DHT22;49838;51.798;10.954;2022-12-10T04:23:37;6.40;51.50
64549;DHT22;49838;51.798;10.954;2022-12-10T04:26:21;6.40;51.40
64549;DHT22;49838;51.798;10.954;2022-12-10T04:29:06;6.40;51.40
64549;DHT22;49838;51.798;10.954;2022-12-10T04:31:34;6.30;51.30
64549;DHT22;49838;51.798;10.954;2022-12-10T04:34:02;6.30;51.20
64549;DHT22;49838;51.798;10.954;2022-12-10T04:36:30;6.20;51.20
64549;DHT22;49838;51.798;10.954;2022-12-10T04:38:58;6.20;51.30
64549;DHT22;49838;51.798;10.954;2022-12-10T04:41:26;6.20;51.30
64549;DHT22;49838;51.798;10.954;2022-12-10T04:43:53;6.20;51.40
64549;DHT22;49838;51.798;10.954;2022-12-10T04:46:21;6.20;51.40
64549;DHT22;49838;51.798;10.954;2022-12-10T04:48:48;6.20;51.40
64549;DHT22;49838;51.798;10.954;2022-12-10T04:51:16;6.30;51.40
64549;DHT22;49838;51.798;10.954;2022-12-10T04:53:44;6.30;51.40
64549;DHT22;49838;51.798;10.954;2022-12-10T04:56:12;6.30;51.40
64549;DHT22;49838;51.798;10.954;2022-12-10T04:58:39;6.30;51.50
64549;DHT22;49838;51.798;10.954;2022-12-10T05:01:07;6.30;51.50
64549;DHT22;49838;51.798;10.954;2022-12-10T05:03:36;6.20;51.30
64549;DHT22;49838;51.798;10.954;2022-12-10T05:06:05;6.20;51.40
64549;DHT22;49838;51.798;10.954;2022-12-10T05:08:38;6.20;51.40
64549;DHT22;49838;51.798;10.954;2022-12-10T05:11:09;6.20;51.40
64549;DHT22;49838;51.798;10.954;2022-12-10T05:13:38;6.10;51.40
64549;DHT22;49838;51.798;10.954;2022-12-10T05:16:07;6.10;51.40
64549;DHT22;49838;51.798;10.954;2022-12-10T05:18:37;6.20;51.50
64549;DHT22;49838;51.798;10.954;2022-12-10T05:21:05;6.20;51.40
64549;DHT22;49838;51.798;10.954;2022-12-10T05:23:38;6.10;51.40
64549;DHT22;49838;51.798;10.954;2022-12-10T05:26:08;6.10;51.40
64549;DHT22;49838;51.798;10.954;2022-12-10T05:28:38;6.10;52.00
64549;DHT22;49838;51.798;10.954;2022-12-10T05:31:10;6.20;51.40
64549;DHT22;49838;51.798;10.954;2022-12-10T05:33:38;6.10;51.40
64549;DHT22;49838;51.798;10.954;2022-12-10T05:36:06;6.10;51.30
64549;DHT22;49838;51.798;10.954;2022-12-10T05:38:34;6.10;51.40
64549;DHT22;49838;51.798;10.954;2022-12-10T05:41:02;6.10;51.30
64549;DHT22;49838;51.798;10.954;2022-12-10T05:43:31;6.10;51.30
64549;DHT22;49838;51.798;10.954;2022-12-10T05:45:59;6.10;51.40
64549;DHT22;49838;51.798;10.954;2022-12-10T05:48:27;6.10;51.40
64549;DHT22;49838;51.798;10.954;2022-12-10T05:50:55;6.10;51.30
64549;DHT22;49838;51.798;10.954;2022-12-10T05:53:22;6.10;51.30
64549;DHT22;49838;51.798;10.954;2022-12-10T05:55:56;6.20;51.30
64549;DHT22;49838;51.798;10.954;2022-12-10T05:58:27;6.20;51.30
64549;DHT22;49838;51.798;10.954;2022-12-10T06:00:56;6.20;51.20
64549;DHT22;49838;51.798;10.954;2022-12-10T06:03:24;6.20;51.30
64549;DHT22;49838;51.798;10.954;2022-12-10T06:05:53;6.20;51.30
64549;DHT22;49838;51.798;10.954;2022-12-10T06:08:20;6.20;51.20
64549;DHT22;49838;51.798;10.954;2022-12-10T06:10:49;6.20;51.20
64549;DHT22;49838;51.798;10.954;2022-12-10T06:13:16;6.10;51.10
64549;DHT22;49838;51.798;10.954;2022-12-10T06:15:44;6.10;51.10
64549;DHT22;49838;51.798;10.954;2022-12-10T06:18:13;6.10;51.20
64549;DHT22;49838;51.798;10.954;2022-12-10T06:20:40;6.20;51.30
64549;DHT22;49838;51.798;10.954;2022-12-10T06:23:07;6.20;51.30
64549;DHT22;49838;51.798;10.954;2022-12-10T06:25:37;6.20;51.30
64549;DHT22;49838;51.798;10.954;2022-12-10T06:28:05;6.20;51.30
64549;DHT22;49838;51.798;10.954;2022-12-10T06:30:33;6.20;51.30
64549;DHT22;49838;51.798;10.954;2022-12-10T06:33:01;6.20;51.20
64549;DHT22;49838;51.798;10.954;2022-12-10T06:35:29;6.20;51.20
64549;DHT22;49838;51.798;10.954;2022-12-10T06:37:57;6.20;51.30
64549;DHT22;49838;51.798;10.954;2022-12-10T06:40:24;6.20;51.30
64549;DHT22;49838;51.798;10.954;2022-12-10T06:42:51;6.20;51.30
64549;DHT22;49838;51.798;10.954;2022-12-10T06:45:19;6.20;51.20
64549;DHT22;49838;51.798;10.954;2022-12-10T06:47:50;6.20;51.20
64549;DHT22;49838;51.798;10.954;2022-12-10T06:50:17;6.20;51.20
64549;DHT22;49838;51.798;10.954;2022-12-10T06:52:46;6.20;51.20
64549;DHT22;49838;51.798;10.954;2022-12-10T06:55:13;6.20;51.20
64549;DHT22;49838;51.798;10.954;2022-12-10T06:57:41;6.20;51.10
64549;DHT22;49838;51.798;10.954;2022-12-10T07:00:08;6.10;51.10
64549;DHT22;49838;51.798;10.954;2022-12-10T07:02:37;6.10;51.10
64549;DHT22;49838;51.798;10.954;2022-12-10T07:05:04;6.10;51.20
64549;DHT22;49838;51.798;10.954;2022-12-10T07:07:31;6.10;51.30
64549;DHT22;49838;51.798;10.954;2022-12-10T07:10:00;6.10;51.30
64549;DHT22;49838;51.798;10.954;2022-12-10T07:12:28;6.10;51.20
64549;DHT22;49838;51.798;10.954;2022-12-10T07:14:55;6.10;51.20
64549;DHT22;49838;51.798;10.954;2022-12-10T07:17:22;6.10;51.20
64549;DHT22;49838;51.798;10.954;2022-12-10T07:19:51;6.10;51.30
64549;DHT22;49838;51.798;10.954;2022-12-10T07:22:18;6.10;51.20
64549;DHT22;49838;51.798;10.954;2022-12-10T07:24:47;6.10;51.20
64549;DHT22;49838;51.798;10.954;2022-12-10T07:27:17;6.10;51.30
64549;DHT22;49838;51.798;10.954;2022-12-10T07:29:44;6.10;51.30
64549;DHT22;49838;51.798;10.954;2022-12-10T07:32:12;6.20;51.30
64549;DHT22;49838;51.798;10.954;2022-12-10T07:34:39;6.30;51.40
64549;DHT22;49838;51.798;10.954;2022-12-10T07:37:07;6.30;51.30
64549;DHT22;49838;51.798;10.954;2022-12-10T07:39:34;6.30;51.20
64549;DHT22;49838;51.798;10.954;2022-12-10T07:42:01;6.30;51.10
64549;DHT22;49838;51.798;10.954;2022-12-10T07:44:30;6.40;51.20
64549;DHT22;49838;51.798;10.954;2022-12-10T07:46:58;6.40;51.20
64549;DHT22;49838;51.798;10.954;2022-12-10T07:49:25;6.40;51.30
64549;DHT22;49838;51.798;10.954;2022-12-10T07:51:52;6.50;51.30
64549;DHT22;49838;51.798;10.954;2022-12-10T07:54:20;6.50;51.30
64549;DHT22;49838;51.798;10.954;2022-12-10T07:56:47;6.50;51.20
64549;DHT22;49838;51.798;10.954;2022-12-10T07:59:15;6.50;51.30
64549;DHT22;49838;51.798;10.954;2022-12-10T08:01:44;6.50;51.20
64549;DHT22;49838;51.798;10.954;2022-12-10T08:04:11;6.60;51.20
64549;DHT22;49838;51.798;10.954;2022-12-10T08:06:39;6.70;51.20
64549;DHT22;49838;51.798;10.954;2022-12-10T08:09:07;6.70;51.00
64549;DHT22;49838;51.798;10.954;2022-12-10T08:11:36;6.70;51.10
64549;DHT22;49838;51.798;10.954;2022-12-10T08:14:03;6.70;51.00
64549;DHT22;49838;51.798;10.954;2022-12-10T08:16:30;6.70;50.90
64549;DHT22;49838;51.798;10.954;2022-12-10T08:19:00;6.70;51.00
64549;DHT22;49838;51.798;10.954;2022-12-10T08:21:28;6.70;51.10
64549;DHT22;49838;51.798;10.954;2022-12-10T08:23:57;6.70;51.20
64549;DHT22;49838;51.798;10.954;2022-12-10T08:26:26;6.80;51.20
64549;DHT22;49838;51.798;10.954;2022-12-10T08:28:55;6.80;51.10
64549;DHT22;49838;51.798;10.954;2022-12-10T08:31:24;6.90;51.20
64549;DHT22;49838;51.798;10.954;2022-12-10T08:33:52;6.90;51.20
64549;DHT22;49838;51.798;10.954;2022-12-10T08:36:21;7.00;51.30
64549;DHT22;49838;51.798;10.954;2022-12-10T08:38:49;7.00;51.20
64549;DHT22;49838;51.798;10.954;2022-12-10T08:41:18;7.00;51.10
64549;DHT22;49838;51.798;10.954;2022-12-10T08:43:46;7.10;51.20
64549;DHT22;49838;51.798;10.954;2022-12-10T08:46:14;7.10;51.20
64549;DHT22;49838;51.798;10.954;2022-12-10T08:48:43;7.20;51.30
64549;DHT22;49838;51.798;10.954;2022-12-10T08:51:11;7.20;51.20
64549;DHT22;49838;51.798;10.954;2022-12-10T08:53:42;7.20;51.20
64549;DHT22;49838;51.798;10.954;2022-12-10T08:56:10;7.20;51.10
64549;DHT22;49838;51.798;10.954;2022-12-10T08:58:38;7.20;50.90
64549;DHT22;49838;51.798;10.954;2022-12-10T09:01:06;7.10;50.90
64549;DHT22;49838;51.798;10.954;2022-12-10T09:03:34;7.10;51.00
64549;DHT22;49838;51.798;10.954;2022-12-10T09:06:03;7.10;51.10
64549;DHT22;49838;51.798;10.954;2022-12-10T09:08:31;7.20;51.00
64549;DHT22;49838;51.798;10.954;2022-12-10T09:11:05;7.10;50.90
64549;DHT22;49838;51.798;10.954;2022-12-10T09:13:34;7.10;50.90
64549;DHT22;49838;51.798;10.954;2022-12-10T09:16:01;7.20;51.10
64549;DHT22;49838;51.798;10.954;2022-12-10T09:18:29;7.20;51.10
64549;DHT22;49838;51.798;10.954;2022-12-10T09:20:56;7.30;51.00
64549;DHT22;49838;51.798;10.954;2022-12-10T09:23:24;7.30;51.00
64549;DHT22;49838;51.798;10.954;2022-12-10T09:25:51;7.20;50.80
64549;DHT22;49838;51.798;10.954;2022-12-10T09:28:20;7.10;50.70
64549;DHT22;49838;51.798;10.954;2022-12-10T09:30:54;7.10;50.70
64549;DHT22;49838;51.798;10.954;2022-12-10T09:33:21;7.00;50.60
64549;DHT22;49838;51.798;10.954;2022-12-10T09:35:49;7.00;50.80
64549;DHT22;49838;51.798;10.954;2022-12-10T09:38:16;6.90;50.80
64549;DHT22;49838;51.798;10.954;2022-12-10T09:40:45;6.90;50.90
64549;DHT22;49838;51.798;10.954;2022-12-10T09:43:21;6.90;50.80
64549;DHT22;49838;51.798;10.954;2022-12-10T09:45:57;6.80;50.80
64549;DHT22;49838;51.798;10.954;2022-12-10T09:48:32;6.80;50.90
64549;DHT22;49838;51.798;10.954;2022-12-10T09:51:08;6.80;50.90
64549;DHT22;49838;51.798;10.954;2022-12-10T09:53:39;6.80;50.90
64549;DHT22;49838;51.798;10.954;2022-12-10T09:56:10;6.80;51.00
64549;DHT22;49838;51.798;10.954;2022-12-10T09:58:47;6.90;51.10
64549;DHT22;49838;51.798;10.954;2022-12-10T10:01:16;6.90;51.00
64549;DHT22;49838;51.798;10.954;2022-12-10T10:03:46;6.90;50.90
64549;DHT22;49838;51.798;10.954;2022-12-10T10:06:14;6.90;51.00
64549;DHT22;49838;51.798;10.954;2022-12-10T10:08:43;7.00;51.10
64549;DHT22;49838;51.798;10.954;2022-12-10T10:11:14;7.00;51.00
64549;DHT22;49838;51.798;10.954;2022-12-10T10:13:45;7.00;50.80
64549;DHT22;49838;51.798;10.954;2022-12-10T10:16:20;7.00;50.80
64549;DHT22;49838;51.798;10.954;2022-12-10T10:18:52;7.00;50.90
64549;DHT22;49838;51.798;10.954;2022-12-10T10:21:24;7.00;51.00
64549;DHT22;49838;51.798;10.954;2022-12-10T10:23:54;7.00;50.90
64549;DHT22;49838;51.798;10.954;2022-12-10T10:26:23;7.00;50.90
64549;DHT22;49838;51.798;10.954;2022-12-10T10:28:54;7.00;50.90
64549;DHT22;49838;51.798;10.954;2022-12-10T10:31:25;7.00;50.90
64549;DHT22;49838;51.798;10.954;2022-12-10T10:33:55;7.00;51.00
64549;DHT22;49838;51.798;10.954;2022-12-10T10:36:24;7.00;51.10
64549;DHT22;49838;51.798;10.954;2022-12-10T10:38:53;7.00;51.00
64549;DHT22;49838;51.798;10.954;2022-12-10T10:41:22;7.00;50.90
64549;DHT22;49838;51.798;10.954;2022-12-10T10:43:56;7.00;50.80
64549;DHT22;49838;51.798;10.954;2022-12-10T10:46:27;6.90;50.80
64549;DHT22;49838;51.798;10.954;2022-12-10T10:49:11;6.90;50.80
64549;DHT22;49838;51.798;10.954;2022-12-10T10:51:41;6.90;50.90
64549;DHT22;49838;51.798;10.954;2022-12-10T10:54:10;6.90;50.90
64549;DHT22;49838;51.798;10.954;2022-12-10T10:56:39;6.90;51.00
64549;DHT22;49838;51.798;10.954;2022-12-10T10:59:20;6.90;51.00
64549;DHT22;49838;51.798;10.954;2022-12-10T11:01:58;6.80;50.70
64549;DHT22;49838;51.798;10.954;2022-12-10T11:04:30;6.80;50.90
64549;DHT22;49838;51.798;10.954;2022-12-10T11:07:04;6.80;50.80
64549;DHT22;49838;51.798;10.954;2022-12-10T11:09:46;6.80;50.90
64549;DHT22;49838;51.798;10.954;2022-12-10T11:12:29;6.80;50.90
64549;DHT22;49838;51.798;10.954;2022-12-10T11:15:03;6.80;50.90
64549;DHT22;49838;51.798;10.954;2022-12-10T11:17:55;6.80;51.00
64549;DHT22;49838;51.798;10.954;2022-12-10T11:20:24;6.80;50.80
64549;DHT22;49838;51.798;10.954;2022-12-10T11:22:53;6.80;50.80
64549;DHT22;49838;51.798;10.954;2022-12-10T11:25:25;6.80;50.80
64549;DHT22;49838;51.798;10.954;2022-12-10T11:28:15;6.80;50.80
64549;DHT22;49838;51.798;10.954;2022-12-10T11:30:55;6.80;50.90
64549;DHT22;49838;51.798;10.954;2022-12-10T11:33:31;6.80;50.90
64549;DHT22;49838;51.798;10.954;2022-12-10T11:36:09;6.80;50.80
64549;DHT22;49838;51.798;10.954;2022-12-10T11:38:50;6.80;50.80
64549;DHT22;49838;51.798;10.954;2022-12-10T11:41:33;6.80;50.90
64549;DHT22;49838;51.798;10.954;2022-12-10T11:44:12;6.80;50.80
64549;DHT22;49838;51.798;10.954;2022-12-10T11:46:53;6.80;50.70
64549;DHT22;49838;51.798;10.954;2022-12-10T11:49:31;6.80;50.80
64549;DHT22;49838;51.798;10.954;2022-12-10T11:52:08;6.80;50.70
64549;DHT22;49838;51.798;10.954;2022-12-10T11:54:44;6.80;50.80
64549;DHT22;49838;51.798;10.954;2022-12-10T11:57:22;6.80;50.80
64549;DHT22;49838;51.798;10.954;2022-12-10T11:59:59;6.80;50.90
64549;DHT22;49838;51.798;10.954;2022-12-10T12:02:35;6.80;50.50
64549;DHT22;49838;51.798;10.954;2022-12-10T12:05:28;6.80;50.40
64549;DHT22;49838;51.798;10.954;2022-12-10T12:08:09;6.70;50.40
64549;DHT22;49838;51.798;10.954;2022-12-10T12:10:52;6.70;50.50
64549;DHT22;49838;51.798;10.954;2022-12-10T12:13:29;6.60;50.30
64549;DHT22;49838;51.798;10.954;2022-12-10T12:16:03;6.60;50.30
64549;DHT22;49838;51.798;10.954;2022-12-10T12:18:39;6.60;50.30
64549;DHT22;49838;51.798;10.954;2022-12-10T12:21:13;6.50;50.40
64549;DHT22;49838;51.798;10.954;2022-12-10T12:23:44;6.50;50.60
64549;DHT22;49838;51.798;10.954;2022-12-10T12:26:18;6.50;50.70
64549;DHT22;49838;51.798;10.954;2022-12-10T12:28:51;6.50;50.70
64549;DHT22;49838;51.798;10.954;2022-12-10T12:31:22;6.50;50.50
64549;DHT22;49838;51.798;10.954;2022-12-10T12:34:01;6.50;50.40
64549;DHT22;49838;51.798;10.954;2022-12-10T12:36:34;6.50;50.30
64549;DHT22;49838;51.798;10.954;2022-12-10T12:39:02;6.50;50.50
64549;DHT22;49838;51.798;10.954;2022-12-10T12:41:40;6.50;50.40
64549;DHT22;49838;51.798;10.954;2022-12-10T12:44:14;6.40;50.30
64549;DHT22;49838;51.798;10.954;2022-12-10T12:46:46;6.40;50.50
64549;DHT22;49838;51.798;10.954;2022-12-10T12:49:18;6.40;50.40
64549;DHT22;49838;51.798;10.954;2022-12-10T12:51:52;6.40;50.50
64549;DHT22;49838;51.798;10.954;2022-12-10T12:54:23;6.40;50.50
64549;DHT22;49838;51.798;10.954;2022-12-10T12:57:02;6.40;50.30
64549;DHT22;49838;51.798;10.954;2022-12-10T12:59:39;6.40;50.20
64549;DHT22;49838;51.798;10.954;2022-12-10T13:05:16;6.30;51.10
64549;DHT22;49838;51.798;10.954;2022-12-10T13:10:51;6.30;50.50
64549;DHT22;49838;51.798;10.954;2022-12-10T13:13:24;6.30;50.50
64549;DHT22;49838;51.798;10.954;2022-12-10T13:15:56;6.30;50.50
64549;DHT22;49838;51.798;10.954;2022-12-10T13:18:46;6.30;50.60
64549;DHT22;49838;51.798;10.954;2022-12-10T13:21:15;6.30;50.50
64549;DHT22;49838;51.798;10.954;2022-12-10T13:23:52;6.30;50.60
64549;DHT22;49838;51.798;10.954;2022-12-10T13:26:32;6.40;50.70
64549;DHT22;49838;51.798;10.954;2022-12-10T13:29:12;6.40;51.20
64549;DHT22;49838;51.798;10.954;2022-12-10T13:31:55;6.40;50.60
64549;DHT22;49838;51.798;10.954;2022-12-10T13:34:35;6.30;50.50
64549;DHT22;49838;51.798;10.954;2022-12-10T13:37:14;6.30;50.40
64549;DHT22;49838;51.798;10.954;2022-12-10T13:40:08;6.20;50.40
64549;DHT22;49838;51.798;10.954;2022-12-10T13:42:43;6.20;50.50
64549;DHT22;49838;51.798;10.954;2022-12-10T13:45:30;6.20;50.60
64549;DHT22;49838;51.798;10.954;2022-12-10T13:48:17;6.20;50.60
64549;DHT22;49838;51.798;10.954;2022-12-10T13:51:04;6.20;50.60
64549;DHT22;49838;51.798;10.954;2022-12-10T13:53:49;6.10;50.60
64549;DHT22;49838;51.798;10.954;2022-12-10T13:56:28;6.10;50.50
64549;DHT22;49838;51.798;10.954;2022-12-10T13:59:05;6.10;50.60
64549;DHT22;49838;51.798;10.954;2022-12-10T14:01:44;6.10;50.70
64549;DHT22;49838;51.798;10.954;2022-12-10T14:04:20;6.10;50.80
64549;DHT22;49838;51.798;10.954;2022-12-10T14:07:03;6.10;50.90
64549;DHT22;49838;51.798;10.954;2022-12-10T14:09:35;6.20;50.90
64549;DHT22;49838;51.798;10.954;2022-12-10T14:12:10;6.20;50.60
64549;DHT22;49838;51.798;10.954;2022-12-10T14:14:42;6.10;50.50
64549;DHT22;49838;51.798;10.954;2022-12-10T14:17:12;6.10;50.50
64549;DHT22;49838;51.798;10.954;2022-12-10T14:19:47;6.00;50.40
64549;DHT22;49838;51.798;10.954;2022-12-10T14:22:20;6.00;50.50
64549;DHT22;49838;51.798;10.954;2022-12-10T14:24:54;6.00;50.60
64549;DHT22;49838;51.798;10.954;2022-12-10T14:27:27;6.00;50.70
64549;DHT22;49838;51.798;10.954;2022-12-10T14:29:58;6.00;50.70
64549;DHT22;49838;51.798;10.954;2022-12-10T14:32:29;6.00;50.70
64549;DHT22;49838;51.798;10.954;2022-12-10T14:35:00;6.00;50.70
64549;DHT22;49838;51.798;10.954;2022-12-10T14:37:32;6.00;50.70
64549;DHT22;49838;51.798;10.954;2022-12-10T14:40:03;6.00;50.80
64549;DHT22;49838;51.798;10.954;2022-12-10T14:42:32;6.10;50.80
64549;DHT22;49838;51.798;10.954;2022-12-10T14:45:05;6.10;50.70
64549;DHT22;49838;51.798;10.954;2022-12-10T14:47:35;6.10;50.60
64549;DHT22;49838;51.798;10.954;2022-12-10T14:50:05;6.10;50.80
64549;DHT22;49838;51.798;10.954;2022-12-10T14:52:40;6.10;50.70
64549;DHT22;49838;51.798;10.954;2022-12-10T14:55:11;6.10;50.70
64549;DHT22;49838;51.798;10.954;2022-12-10T14:57:41;6.10;50.50
64549;DHT22;49838;51.798;10.954;2022-12-10T15:00:11;6.00;50.60
64549;DHT22;49838;51.798;10.954;2022-12-10T15:02:42;6.00;50.60
64549;DHT22;49838;51.798;10.954;2022-12-10T15:05:12;6.00;50.70
64549;DHT22;49838;51.798;10.954;2022-12-10T15:07:44;6.00;50.80
64549;DHT22;49838;51.798;10.954;2022-12-10T15:10:20;6.10;50.80
64549;DHT22;49838;51.798;10.954;2022-12-10T15:12:50;6.10;50.70
64549;DHT22;49838;51.798;10.954;2022-12-10T15:15:21;6.10;50.70
64549;DHT22;49838;51.798;10.954;2022-12-10T15:17:55;6.10;50.60
64549;DHT22;49838;51.798;10.954;2022-12-10T15:20:27;6.10;50.60
64549;DHT22;49838;51.798;10.954;2022-12-10T15:23:07;6.00;50.50
64549;DHT22;49838;51.798;10.954;2022-12-10T15:25:44;6.00;50.50
64549;DHT22;49838;51.798;10.954;2022-12-10T15:28:23;6.00;50.60
64549;DHT22;49838;51.798;10.954;2022-12-10T15:30:54;6.00;50.70
64549;DHT22;49838;51.798;10.954;2022-12-10T15:33:28;6.10;50.90
64549;DHT22;49838;51.798;10.954;2022-12-10T15:36:03;6.20;50.90
64549;DHT22;49838;51.798;10.954;2022-12-10T15:38:32;6.30;50.80
64549;DHT22;49838;51.798;10.954;2022-12-10T15:41:19;6.30;50.80
64549;DHT22;49838;51.798;10.954;2022-12-10T15:44:02;6.30;50.70
64549;DHT22;49838;51.798;10.954;2022-12-10T15:46:31;6.30;50.50
64549;DHT22;49838;51.798;10.954;2022-12-10T15:48:59;6.30;50.50
64549;DHT22;49838;51.798;10.954;2022-12-10T15:51:26;6.20;50.50
64549;DHT22;49838;51.798;10.954;2022-12-10T15:53:55;6.20;50.40
64549;DHT22;49838;51.798;10.954;2022-12-10T15:56:22;6.10;50.40
64549;DHT22;49838;51.798;10.954;2022-12-10T15:58:50;6.10;50.40
64549;DHT22;49838;51.798;10.954;2022-12-10T16:01:18;6.10;50.50
64549;DHT22;49838;51.798;10.954;2022-12-10T16:03:46;6.10;50.60